Latest Coastal Weather Observations for Wilsons Promontory

IDV60701

Issued at 6:21 am EDT Thursday 14 November 2019 (issued every 10 minutes, with the page automatically refreshed every 10 minutes)

About coastal observations | Map of coastal stations | Coastal observations for VIC | Marine services | Other Formats
Station Details ID: 085096 Name: WILSONS PROMONTORY LIGHTHOUSE Lat: -39.13 Lon: 146.42 Height: 95.0 m
Data from the previous 72 hours. | See also: Recent months at Wilsons Promontory
Date/Time
EDT
Wind Sea
Height
m
Swell Vis
km
Cloud Weather Temp
°C
Press
hPa
Rain since
9am
mm
Dir  Spd
kts
Gust
kts
Height
m
Period
s
Dir
14/06:00am W 30 44 - - - - - - - 12.1 1009.9 2.6
14/05:30am W 33 47 - - - - - - - 11.6 1009.5 2.6
14/05:00am W 28 41 - - - - - - - 11.8 1009.9 2.6
14/04:30am W 29 40 - - - - - - - 11.7 1010.2 2.6
14/04:00am W 27 42 - - - - - - - 11.7 1010.2 2.4
14/03:30am W 24 38 - - - - - - - 11.8 1010.7 2.0
14/03:00am W 25 40 - - - - - - - 12.2 1011.2 2.0
14/02:30am W 23 33 - - - - - - - 12.2 1011.1 2.0
14/02:00am W 24 39 - - - - - - - 12.2 1011.2 2.0
14/01:30am W 24 37 - - - - - - - 12.2 1011.3 2.0
14/01:00am W 26 40 - - - - - - - 12.0 1011.1 2.0
14/12:30am W 28 42 - - - - - - - 11.9 1010.9 2.0
14/12:00am W 27 37 - - - - - - - 12.1 1011.3 1.8
 
Date/Time
EDT
Wind Sea
Height
m
Swell Vis
km
Cloud Weather Temp
°C
Press
hPa
Rain since
9am
mm
Dir  Spd
kts
Gust
kts
Height
m
Period
s
Dir
13/11:30pm W 28 38 - - - - - - - 11.9 1011.3 1.8
13/11:03pm W 27 37 - - - - - - - 12.0 1011.2 1.8
13/11:00pm W 27 36 - - - - - - - 12.1 1011.4 1.8
13/10:30pm W 28 38 - - - - - - - 12.6 1011.4 1.4
13/10:00pm W 27 39 - - - - - - - 12.3 1011.2 1.4
13/09:30pm W 31 45 - - - - - - - 12.3 1010.9 1.4
13/09:00pm W 28 42 - - - - - - - 12.4 1011.0 1.4
13/08:30pm W 28 43 - - - - - - - 12.5 1010.5 1.4
13/08:00pm W 30 42 - - - - - - - 12.6 1010.1 1.4
13/07:30pm W 32 45 - - - - - - - 12.4 1009.5 1.4
13/07:00pm W 36 51 - - - - - - - 12.0 1008.7 1.4
13/06:30pm W 35 51 - - - - - - - 12.4 1008.4 0.4
13/06:00pm W 33 49 - - - - - - - 12.2 1008.6 0.4
13/05:30pm W 36 63 - - - - - - - 12.6 1008.4 0.2
13/05:00pm W 40 56 - - - - - - - 12.6 1007.9 0.2
13/04:30pm W 40 57 - - - - - - - 12.4 1008.3 0.2
13/04:00pm W 39 57 - - - - - - - 12.1 1008.7 0.2
13/03:46pm W 43 58 - - - - - - - 12.0 1008.0 0.2
13/03:39pm W 30 54 - - - - - - - 12.6 1008.9 0.2
13/03:30pm W 43 59 - - - - - - - 12.5 1008.6 0.2
13/03:26pm W 44 58 - - - - - - - 12.3 1008.0 0.2
13/03:00pm W 34 56 - - - - - - - 11.5 1009.2 0.2
13/02:45pm W 33 53 - - - - - - - 11.4 1009.2 0.2
13/02:42pm W 31 56 - - - - - - - 11.4 1009.3 0.0
13/02:30pm W 43 67 - - - - - - - 11.3 1008.8 0.0
13/02:16pm W 46 58 - - - - - - - 11.7 1008.3 0.0
13/02:00pm W 32 50 - - - - - - - 12.0 1009.5 0.0
13/01:30pm W 38 54 - - - - - - - 12.6 1009.0 0.0
13/01:00pm W 36 50 - - - - - - - 12.5 1008.7 0.0
13/12:30pm W 36 51 - - - - - - - 12.9 1009.2 0.0
13/12:00pm W 36 52 - - - - - - - 12.6 1009.4 0.0
13/11:54am W 40 52 - - - - - - - 12.6 1009.4 0.0
13/11:53am W 43 52 - - - - - - - 12.5 1009.0 0.0
13/11:30am W 28 45 - - - - - - - 11.6 1010.1 0.0
13/11:00am W 27 43 - - - - - - - 12.6 1010.0 0.0
13/10:30am W 27 41 - - - - - - - 13.0 1010.3 0.0
13/10:00am W 31 43 - - - - - - - 12.1 1009.7 0.0
13/09:30am W 27 42 - - - - - - - 12.4 1009.8 0.0
13/09:00am W 29 46 - - - - - - - 10.6 1009.5 2.8
13/08:32am W 30 40 - - - - - - - 11.5 1009.5 2.8
13/08:30am W 29 38 - - - - - - - 11.5 1009.6 2.8
13/08:00am W 25 36 - - - - - - - 10.3 1010.0 2.8
13/07:30am W 32 42 - - - - - - - 11.3 1009.4 2.6
13/07:01am W 34 44 - - - - - - - 11.0 1009.3 2.6
13/07:00am W 35 44 - - - - - - - 11.0 1009.2 2.6
13/06:36am W 32 42 - - - - - - - 10.5 1008.9 2.6
13/06:30am W 35 42 - - - - - - - 10.4 1008.7 2.6
13/06:00am W 34 47 - - - - - - - 10.2 1008.3 2.6
13/05:34am W 33 43 - - - - - - - 10.1 1008.1 2.6
13/05:30am W 33 42 - - - - - - - 10.1 1008.4 2.6
13/05:00am W 30 41 - - - - - - - 9.0 1008.4 2.6
13/04:36am W 33 45 - - - - - - - 9.6 1008.4 2.4
13/04:30am W 33 42 - - - - - - - 9.3 1008.4 2.4
13/04:02am W 33 43 - - - - - - - 10.4 1008.5 2.2
13/04:00am W 34 43 - - - - - - - 10.3 1008.1 2.2
13/03:57am WSW 36 42 - - - - - - - 10.2 1008.0 2.2
13/03:30am W 24 34 - - - - - - - 9.8 1008.6 2.2
13/03:00am W 28 41 - - - - - - - 9.5 1008.8 2.2
13/02:43am W 23 41 - - - - - - - 8.8 1009.4 2.2
13/02:30am WSW 35 53 - - - - - - - 8.0 1008.9 2.2
13/02:28am WSW 37 53 - - - - - - - 8.1 1008.7 2.2
13/02:26am WSW 38 60 - - - - - - - 7.9 1008.4 2.2
13/02:18am WSW 50 61 - - - - - - - 8.8 1007.3 1.2
13/02:16am W 33 61 - - - - - - - 10.2 1008.1 1.0
13/02:00am W 30 41 - - - - - - - 10.2 1009.1 1.0
13/01:30am W 36 47 - - - - - - - 10.2 1008.5 1.0
13/01:00am W 31 43 - - - - - - - 9.9 1008.6 1.0
13/12:30am W 29 45 - - - - - - - 10.3 1009.0 1.0
13/12:00am W 32 44 - - - - - - - 9.8 1008.8 1.0
 
Date/Time
EDT
Wind Sea
Height
m
Swell Vis
km
Cloud Weather Temp
°C
Press
hPa
Rain since
9am
mm
Dir  Spd
kts
Gust
kts
Height
m
Period
s
Dir
12/11:30pm W 30 41 - - - - - - - 9.8 1009.0 1.0
12/11:00pm W 31 45 - - - - - - - 10.1 1008.3 1.0
12/10:30pm W 29 39 - - - - - - - 10.2 1008.2 1.0
12/10:00pm W 34 45 - - - - - - - 9.5 1008.2 1.0
12/09:30pm W 34 52 - - - - - - - 9.1 1007.5 1.0
12/09:19pm WSW 37 54 - - - - - - - 9.3 1006.6 0.6
12/09:06pm W 32 42 - - - - - - - 9.7 1007.2 0.6
12/09:00pm W 31 39 - - - - - - - 10.0 1007.3 0.6
12/08:30pm W 31 47 - - - - - - - 10.2 1007.0 0.6
12/08:00pm W 31 47 - - - - - - - 10.8 1006.3 0.4
12/07:30pm W 32 48 - - - - - - - 10.4 1006.9 0.2
12/07:26pm W 36 48 - - - - - - - 10.3 1006.1 0.2
12/07:24pm W 36 43 - - - - - - - 10.3 1006.0 0.2
12/07:00pm W 23 41 - - - - - - - 10.9 1006.7 0.2
12/06:59pm W 22 41 - - - - - - - 10.9 1006.7 0.2
12/06:30pm W 34 49 - - - - - - - 11.1 1005.5 0.2
12/06:00pm W 31 45 - - - - - - - 11.5 1005.4 0.2
12/05:30pm W 28 40 - - - - - - - 10.1 1005.8 0.2
12/05:00pm W 27 41 - - - - - - - 11.7 1004.8 0.0
12/04:30pm W 24 35 - - - - - - - 11.9 1005.2 0.0
12/04:00pm W 28 41 - - - - - - - 11.2 1004.9 0.0
12/03:30pm W 30 42 - - - - - - - 12.3 1004.9 0.0
12/03:00pm W 28 40 - - - - - - - 13.0 1005.0 0.0
12/02:30pm W 25 38 - - - - - - - 13.7 1004.9 0.0
12/02:00pm W 30 45 - - - - - - - 12.6 1004.9 0.0
12/01:30pm W 30 47 - - - - - - - 12.6 1005.0 0.0
12/01:00pm W 27 41 - - - - - - - 12.5 1004.7 0.0
12/12:30pm W 29 40 - - - - - - - 13.0 1004.4 0.0
12/12:00pm W 33 44 - - - - - - - 13.0 1003.9 0.0
12/11:48am W 35 46 - - - - - - - 12.8 1003.6 0.0
12/11:34am W 35 42 - - - - - - - 12.7 1003.7 0.0
12/11:30am WSW 24 40 - - - - - - - 13.2 1003.9 0.0
12/11:25am WSW 21 40 - - - - - - - 13.3 1004.2 0.0
12/11:06am W 36 46 - - - - - - - 12.5 1003.7 0.0
12/11:00am W 38 45 - - - - - - - 12.4 1003.3 0.0
12/10:56am W 26 43 - - - - - - - 12.6 1003.6 0.0
12/10:55am W 24 43 - - - - - - - 12.6 1003.6 0.0
12/10:30am W 37 48 - - - - - - - 12.5 1002.9 0.0
12/10:00am W 35 48 - - - - - - - 12.8 1002.9 0.0
12/09:30am W 36 47 - - - - - - - 12.3 1001.7 0.0
12/09:00am W 33 45 - - - - - - - 12.6 1001.9 0.0
12/08:30am W 33 43 - - - - - - - 12.1 1002.0 0.0
12/08:00am W 35 48 - - - - - - - 12.1 1001.7 0.0
12/07:43am W 33 43 - - - - - - - 12.2 1001.4 0.0
12/07:30am W 30 37 - - - - - - - 12.3 1001.5 0.0
12/07:00am W 35 45 - - - - - - - 12.1 1000.5 0.0
12/06:34am W 34 44 - - - - - - - 12.2 1000.5 0.0
12/06:30am W 35 44 - - - - - - - 12.2 1000.1 0.0
12/06:00am WSW 34 45 - - - - - - - 12.4 998.7 0.0
12/05:30am WSW 35 46 - - - - - - - 12.3 998.0 0.0
12/05:00am WSW 38 49 - - - - - - - 12.6 997.6 0.0
12/04:58am WSW 37 47 - - - - - - - 12.6 997.7 0.0
12/04:47am WSW 43 50 - - - - - - - 12.7 997.2 0.0
12/04:40am W 31 44 - - - - - - - 13.0 997.6 0.0
12/04:30am W 29 36 - - - - - - - 13.4 997.8 0.0
12/04:00am W 26 37 - - - - - - - 13.8 997.3 0.0
12/03:33am W 22 32 - - - - - - - 15.6 997.5 0.0
12/03:30am W 24 33 - - - - - - - 15.6 997.6 0.0
12/03:18am W 20 36 - - - - - - - 17.3 996.9 0.0
12/03:09am W 15 25 - - - - - - - 19.8 996.6 0.0
12/03:00am N 7 17 - - - - - - - 20.1 995.8 0.0
12/02:30am NW 11 21 - - - - - - - 20.8 996.4 0.0
12/02:00am W 7 17 - - - - - - - 20.7 997.6 0.0
12/01:30am W 7 19 - - - - - - - 20.9 998.3 0.0
12/01:00am NW 10 35 - - - - - - - 24.2 998.3 0.0
12/12:59am WNW 10 35 - - - - - - - 25.5 998.5 0.0
12/12:57am NW 21 35 - - - - - - - 25.5 997.9 0.0
12/12:30am N 18 30 - - - - - - - 25.2 998.0 0.0
12/12:00am N 17 33 - - - - - - - 25.2 998.7 0.0
 
Date/Time
EDT
Wind Sea
Height
m
Swell Vis
km
Cloud Weather Temp
°C
Press
hPa
Rain since
9am
mm
Dir  Spd
kts
Gust
kts
Height
m
Period
s
Dir
11/11:30pm N 15 28 - - - - - - - 24.1 999.2 0.0
11/11:27pm N 15 28 - - - - - - - 24.1 999.3 0.0
11/11:00pm NNE 13 19 - - - - - - - 20.3 999.9 0.0
11/10:30pm NNE 14 21 - - - - - - - 17.9 1000.4 0.0
11/10:00pm NNE 15 20 - - - - - - - 16.4 1000.9 0.0
11/09:30pm NNE 15 19 - - - - - - - 17.3 1001.8 0.0
11/09:00pm NNE 14 17 - - - - - - - 19.0 1002.7 0.0
11/08:30pm N 11 15 - - - - - - - 20.9 1003.2 0.0
11/08:00pm N 10 15 - - - - - - - 23.6 1004.3 0.0
11/07:30pm N 9 15 - - - - - - - 23.4 1004.6 0.0
11/07:00pm N 9 15 - - - - - - - 23.5 1004.8 0.0
11/06:30pm N 6 10 - - - - - - - 23.4 1004.8 0.0
11/06:00pm S 4 9 - - - - - - - 23.3 1005.1 0.0
11/05:30pm NW 7 16 - - - - - - - 23.4 1005.1 0.0
11/05:00pm NW 5 15 - - - - - - - 23.4 1005.3 0.0
11/04:30pm W 7 14 - - - - - - - 23.7 1005.9 0.0
11/04:03pm W 15 25 - - - - - - - 23.4 1005.9 0.0
11/04:00pm W 14 24 - - - - - - - 23.5 1006.1 0.0
11/03:37pm W 15 27 - - - - - - - 23.1 1006.1 0.0
11/03:30pm W 13 23 - - - - - - - 22.8 1006.1 0.0
11/03:00pm W 6 13 - - - - - - - 22.1 1006.5 0.0
11/02:30pm W 17 31 - - - - - - - 22.7 1007.3 0.0
11/02:00pm W 19 32 - - - - - - - 22.1 1007.8 0.0
11/01:30pm W 16 28 - - - - - - - 21.4 1008.3 0.0
11/01:00pm W 18 28 - - - - - - - 20.6 1008.6 0.0
11/12:30pm WNW 15 29 - - - - - - - 19.8 1008.6 0.0
11/12:00pm W 19 38 - - - - - - - 19.2 1009.0 0.0
11/11:30am W 16 33 - - - - - - - 18.1 1009.6 0.0
11/11:26am W 16 26 - - - - - - - 18.2 1009.6 0.0
11/11:25am W 17 26 - - - - - - - 18.1 1009.6 0.0
11/11:00am W 5 14 - - - - - - - 17.8 1010.1 0.0
11/10:30am NW 8 22 - - - - - - - 17.0 1010.3 0.0
11/10:00am NW 9 22 - - - - - - - 16.8 1011.1 0.0
11/09:51am WNW 15 23 - - - - - - - 16.3 1010.9 0.0
11/09:30am ESE 5 11 - - - - - - - 16.4 1011.4 0.0
11/09:00am W 6 14 - - - - - - - 15.4 1011.4 2.0
11/08:30am S 5 9 - - - - - - - 15.2 1011.3 2.0
11/08:00am SE 5 11 - - - - - - - 14.3 1011.4 2.0
11/07:30am E 4 6 - - - - - - - 12.9 1011.2 2.0
11/07:00am NE 5 7 - - - - - - - 12.2 1010.6 2.0
11/06:30am E 4 9 - - - - - - - 12.0 1010.3 2.0

Other formats

Comma delimited format used in spreadsheet applications
http://www.bom.gov.au/fwo/IDV60701/IDV60701.94893.axf

JavaScript Object Notation format (JSON) in row-major order
http://www.bom.gov.au/fwo/IDV60701/IDV60701.94893.json

Data quality

Most of these data are generated automatically and are frequently updated. Quality checks on data are not normally performed. It is possible for incorrect values to appear. Refer to information at About Latest Weather Observations and please check the disclaimer before using these data.